sensor_id;sensor_type;location;lat;lon;timestamp;temperature;humidity
19970;DHT22;10146;47.754;9.566;2024-02-23T00:01:56;6.50;99.90
19970;DHT22;10146;47.754;9.566;2024-02-23T00:04:22;6.50;99.90
19970;DHT22;10146;47.754;9.566;2024-02-23T00:06:48;6.40;99.90
19970;DHT22;10146;47.754;9.566;2024-02-23T00:09:13;6.30;99.90
19970;DHT22;10146;47.754;9.566;2024-02-23T00:11:40;6.30;99.90
19970;DHT22;10146;47.754;9.566;2024-02-23T00:14:10;6.30;99.90
19970;DHT22;10146;47.754;9.566;2024-02-23T00:16:41;6.20;99.90
19970;DHT22;10146;47.754;9.566;2024-02-23T00:19:08;6.20;99.90
19970;DHT22;10146;47.754;9.566;2024-02-23T00:21:35;6.20;99.90
19970;DHT22;10146;47.754;9.566;2024-02-23T00:24:01;6.20;99.90
19970;DHT22;10146;47.754;9.566;2024-02-23T00:26:27;6.20;99.90
19970;DHT22;10146;47.754;9.566;2024-02-23T00:28:54;6.10;99.90
19970;DHT22;10146;47.754;9.566;2024-02-23T00:31:20;6.10;99.90
19970;DHT22;10146;47.754;9.566;2024-02-23T00:33:45;6.20;99.90
19970;DHT22;10146;47.754;9.566;2024-02-23T00:36:11;6.10;99.90
19970;DHT22;10146;47.754;9.566;2024-02-23T00:38:36;6.10;99.90
19970;DHT22;10146;47.754;9.566;2024-02-23T00:41:02;6.10;99.90
19970;DHT22;10146;47.754;9.566;2024-02-23T00:43:28;6.10;99.90
19970;DHT22;10146;47.754;9.566;2024-02-23T00:45:56;6.10;99.90
19970;DHT22;10146;47.754;9.566;2024-02-23T00:48:22;6.20;99.90
19970;DHT22;10146;47.754;9.566;2024-02-23T00:50:47;6.10;99.90
19970;DHT22;10146;47.754;9.566;2024-02-23T00:53:13;6.10;99.90
19970;DHT22;10146;47.754;9.566;2024-02-23T00:55:38;6.10;99.90
19970;DHT22;10146;47.754;9.566;2024-02-23T00:58:04;6.20;99.90
19970;DHT22;10146;47.754;9.566;2024-02-23T01:00:30;6.20;99.90
19970;DHT22;10146;47.754;9.566;2024-02-23T01:02:55;6.10;99.90
19970;DHT22;10146;47.754;9.566;2024-02-23T01:05:21;6.10;99.90
19970;DHT22;10146;47.754;9.566;2024-02-23T01:07:46;6.10;99.90
19970;DHT22;10146;47.754;9.566;2024-02-23T01:10:12;6.10;99.90
19970;DHT22;10146;47.754;9.566;2024-02-23T01:12:38;6.10;99.90
19970;DHT22;10146;47.754;9.566;2024-02-23T01:15:03;6.10;99.90
19970;DHT22;10146;47.754;9.566;2024-02-23T01:17:29;6.10;99.90
19970;DHT22;10146;47.754;9.566;2024-02-23T01:19:55;6.10;99.90
19970;DHT22;10146;47.754;9.566;2024-02-23T01:22:20;6.10;99.90
19970;DHT22;10146;47.754;9.566;2024-02-23T01:24:46;6.00;99.90
19970;DHT22;10146;47.754;9.566;2024-02-23T01:27:12;6.00;99.90
19970;DHT22;10146;47.754;9.566;2024-02-23T01:29:37;6.00;99.90
19970;DHT22;10146;47.754;9.566;2024-02-23T01:32:03;6.00;99.90
19970;DHT22;10146;47.754;9.566;2024-02-23T01:34:29;6.00;99.90
19970;DHT22;10146;47.754;9.566;2024-02-23T01:36:54;6.00;99.90
19970;DHT22;10146;47.754;9.566;2024-02-23T01:39:20;6.00;99.90
19970;DHT22;10146;47.754;9.566;2024-02-23T01:41:45;6.00;99.90
19970;DHT22;10146;47.754;9.566;2024-02-23T01:44:11;6.00;99.90
19970;DHT22;10146;47.754;9.566;2024-02-23T01:46:37;6.00;99.90
19970;DHT22;10146;47.754;9.566;2024-02-23T01:49:05;6.00;99.90
19970;DHT22;10146;47.754;9.566;2024-02-23T01:51:33;6.10;99.90
19970;DHT22;10146;47.754;9.566;2024-02-23T01:53:59;6.10;99.90
19970;DHT22;10146;47.754;9.566;2024-02-23T01:56:25;6.10;99.90
19970;DHT22;10146;47.754;9.566;2024-02-23T01:58:52;6.10;99.90
19970;DHT22;10146;47.754;9.566;2024-02-23T02:01:19;6.10;99.90
19970;DHT22;10146;47.754;9.566;2024-02-23T02:03:44;6.10;99.90
19970;DHT22;10146;47.754;9.566;2024-02-23T02:06:10;6.20;99.90
19970;DHT22;10146;47.754;9.566;2024-02-23T02:08:37;6.20;99.90
19970;DHT22;10146;47.754;9.566;2024-02-23T02:11:03;6.20;99.90
19970;DHT22;10146;47.754;9.566;2024-02-23T02:13:29;6.20;99.90
19970;DHT22;10146;47.754;9.566;2024-02-23T02:15:55;6.20;99.90
19970;DHT22;10146;47.754;9.566;2024-02-23T02:18:21;6.20;99.90
19970;DHT22;10146;47.754;9.566;2024-02-23T02:20:51;6.10;99.90
19970;DHT22;10146;47.754;9.566;2024-02-23T02:23:18;6.00;99.90
19970;DHT22;10146;47.754;9.566;2024-02-23T02:25:44;6.00;99.90
19970;DHT22;10146;47.754;9.566;2024-02-23T02:28:09;5.90;99.90
19970;DHT22;10146;47.754;9.566;2024-02-23T02:30:35;5.90;99.90
19970;DHT22;10146;47.754;9.566;2024-02-23T02:33:00;5.90;99.90
19970;DHT22;10146;47.754;9.566;2024-02-23T02:35:26;5.90;99.90
19970;DHT22;10146;47.754;9.566;2024-02-23T02:37:52;5.80;99.90
19970;DHT22;10146;47.754;9.566;2024-02-23T02:40:17;5.80;99.90
19970;DHT22;10146;47.754;9.566;2024-02-23T02:42:43;5.70;99.90
19970;DHT22;10146;47.754;9.566;2024-02-23T02:45:08;5.70;99.90
19970;DHT22;10146;47.754;9.566;2024-02-23T02:47:34;5.70;99.90
19970;DHT22;10146;47.754;9.566;2024-02-23T02:50:01;5.70;99.90
19970;DHT22;10146;47.754;9.566;2024-02-23T02:52:27;5.60;99.90
19970;DHT22;10146;47.754;9.566;2024-02-23T02:54:53;5.60;99.90
19970;DHT22;10146;47.754;9.566;2024-02-23T02:57:19;5.50;99.90
19970;DHT22;10146;47.754;9.566;2024-02-23T02:59:45;5.50;99.90
19970;DHT22;10146;47.754;9.566;2024-02-23T03:02:11;5.50;99.90
19970;DHT22;10146;47.754;9.566;2024-02-23T03:04:37;5.50;99.90
19970;DHT22;10146;47.754;9.566;2024-02-23T03:07:02;5.50;99.90
19970;DHT22;10146;47.754;9.566;2024-02-23T03:09:28;5.50;99.90
19970;DHT22;10146;47.754;9.566;2024-02-23T03:11:54;5.50;99.90
19970;DHT22;10146;47.754;9.566;2024-02-23T03:14:19;5.40;99.90
19970;DHT22;10146;47.754;9.566;2024-02-23T03:16:46;5.40;99.90
19970;DHT22;10146;47.754;9.566;2024-02-23T03:19:13;5.40;99.90
19970;DHT22;10146;47.754;9.566;2024-02-23T03:21:38;5.40;99.90
19970;DHT22;10146;47.754;9.566;2024-02-23T03:24:04;5.40;99.90
19970;DHT22;10146;47.754;9.566;2024-02-23T03:26:30;5.30;99.90
19970;DHT22;10146;47.754;9.566;2024-02-23T03:28:55;5.30;99.90
19970;DHT22;10146;47.754;9.566;2024-02-23T03:31:21;5.30;99.90
19970;DHT22;10146;47.754;9.566;2024-02-23T03:33:46;5.30;99.90
19970;DHT22;10146;47.754;9.566;2024-02-23T03:36:12;5.30;99.90
19970;DHT22;10146;47.754;9.566;2024-02-23T03:38:38;5.20;99.90
19970;DHT22;10146;47.754;9.566;2024-02-23T03:41:04;5.20;99.90
19970;DHT22;10146;47.754;9.566;2024-02-23T03:43:29;5.20;99.90
19970;DHT22;10146;47.754;9.566;2024-02-23T03:45:55;5.20;99.90
19970;DHT22;10146;47.754;9.566;2024-02-23T03:48:20;5.20;99.90
19970;DHT22;10146;47.754;9.566;2024-02-23T03:50:46;5.20;99.90
19970;DHT22;10146;47.754;9.566;2024-02-23T03:53:11;5.10;99.90
19970;DHT22;10146;47.754;9.566;2024-02-23T03:55:37;5.10;99.90
19970;DHT22;10146;47.754;9.566;2024-02-23T03:58:03;5.10;99.90
19970;DHT22;10146;47.754;9.566;2024-02-23T04:00:28;5.10;99.90
19970;DHT22;10146;47.754;9.566;2024-02-23T04:02:54;5.10;99.90
19970;DHT22;10146;47.754;9.566;2024-02-23T04:05:19;5.10;99.90
19970;DHT22;10146;47.754;9.566;2024-02-23T04:07:45;5.10;99.90
19970;DHT22;10146;47.754;9.566;2024-02-23T04:10:11;5.10;99.90
19970;DHT22;10146;47.754;9.566;2024-02-23T04:12:42;5.00;99.90
19970;DHT22;10146;47.754;9.566;2024-02-23T04:15:08;5.00;99.90
19970;DHT22;10146;47.754;9.566;2024-02-23T04:17:34;4.90;99.90
19970;DHT22;10146;47.754;9.566;2024-02-23T04:20:01;4.90;99.90
19970;DHT22;10146;47.754;9.566;2024-02-23T04:22:30;4.90;99.90
19970;DHT22;10146;47.754;9.566;2024-02-23T04:24:55;4.90;99.90
19970;DHT22;10146;47.754;9.566;2024-02-23T04:27:24;4.80;99.90
19970;DHT22;10146;47.754;9.566;2024-02-23T04:29:49;4.90;99.90
19970;DHT22;10146;47.754;9.566;2024-02-23T04:32:15;4.90;99.90
19970;DHT22;10146;47.754;9.566;2024-02-23T04:34:40;4.90;99.90
19970;DHT22;10146;47.754;9.566;2024-02-23T04:37:07;4.80;99.90
19970;DHT22;10146;47.754;9.566;2024-02-23T04:39:32;4.80;99.90
19970;DHT22;10146;47.754;9.566;2024-02-23T04:41:58;4.80;99.90
19970;DHT22;10146;47.754;9.566;2024-02-23T04:44:24;4.70;99.90
19970;DHT22;10146;47.754;9.566;2024-02-23T04:46:49;4.60;99.90
19970;DHT22;10146;47.754;9.566;2024-02-23T04:49:15;4.70;99.90
19970;DHT22;10146;47.754;9.566;2024-02-23T04:51:40;4.70;99.90
19970;DHT22;10146;47.754;9.566;2024-02-23T04:54:06;4.70;99.90
19970;DHT22;10146;47.754;9.566;2024-02-23T04:56:32;4.70;99.90
19970;DHT22;10146;47.754;9.566;2024-02-23T04:58:59;4.60;99.90
19970;DHT22;10146;47.754;9.566;2024-02-23T05:01:25;4.70;99.90
19970;DHT22;10146;47.754;9.566;2024-02-23T05:03:50;4.60;99.90
19970;DHT22;10146;47.754;9.566;2024-02-23T05:06:16;4.60;99.90
19970;DHT22;10146;47.754;9.566;2024-02-23T05:08:41;4.60;99.90
19970;DHT22;10146;47.754;9.566;2024-02-23T05:11:07;4.60;99.90
19970;DHT22;10146;47.754;9.566;2024-02-23T05:13:32;4.60;99.90
19970;DHT22;10146;47.754;9.566;2024-02-23T05:15:58;4.50;99.90
19970;DHT22;10146;47.754;9.566;2024-02-23T05:18:24;4.50;99.90
19970;DHT22;10146;47.754;9.566;2024-02-23T05:20:49;4.50;99.90
19970;DHT22;10146;47.754;9.566;2024-02-23T05:23:15;4.50;99.90
19970;DHT22;10146;47.754;9.566;2024-02-23T05:25:42;4.50;99.90
19970;DHT22;10146;47.754;9.566;2024-02-23T05:28:07;4.50;99.90
19970;DHT22;10146;47.754;9.566;2024-02-23T05:30:33;4.50;99.90
19970;DHT22;10146;47.754;9.566;2024-02-23T05:32:58;4.50;99.90
19970;DHT22;10146;47.754;9.566;2024-02-23T05:35:24;4.50;99.90
19970;DHT22;10146;47.754;9.566;2024-02-23T05:37:50;4.50;99.90
19970;DHT22;10146;47.754;9.566;2024-02-23T05:40:16;4.50;99.90
19970;DHT22;10146;47.754;9.566;2024-02-23T05:42:41;4.50;99.90
19970;DHT22;10146;47.754;9.566;2024-02-23T05:45:08;4.50;99.90
19970;DHT22;10146;47.754;9.566;2024-02-23T05:47:40;4.50;99.90
19970;DHT22;10146;47.754;9.566;2024-02-23T05:50:08;4.50;99.90
19970;DHT22;10146;47.754;9.566;2024-02-23T05:52:34;4.50;99.90
19970;DHT22;10146;47.754;9.566;2024-02-23T05:55:02;4.50;99.90
19970;DHT22;10146;47.754;9.566;2024-02-23T05:57:28;4.50;99.90
19970;DHT22;10146;47.754;9.566;2024-02-23T05:59:54;4.50;99.90
19970;DHT22;10146;47.754;9.566;2024-02-23T06:02:23;4.50;99.90
19970;DHT22;10146;47.754;9.566;2024-02-23T06:04:49;4.50;99.90
19970;DHT22;10146;47.754;9.566;2024-02-23T06:07:14;4.50;99.90
19970;DHT22;10146;47.754;9.566;2024-02-23T06:09:43;4.50;99.90
19970;DHT22;10146;47.754;9.566;2024-02-23T06:12:09;4.50;99.90
19970;DHT22;10146;47.754;9.566;2024-02-23T06:14:35;4.50;99.90
19970;DHT22;10146;47.754;9.566;2024-02-23T06:17:01;4.50;99.90
19970;DHT22;10146;47.754;9.566;2024-02-23T06:19:28;4.50;99.90
19970;DHT22;10146;47.754;9.566;2024-02-23T06:21:54;4.50;99.90
19970;DHT22;10146;47.754;9.566;2024-02-23T06:24:19;4.50;99.90
19970;DHT22;10146;47.754;9.566;2024-02-23T06:26:45;4.50;99.90
19970;DHT22;10146;47.754;9.566;2024-02-23T06:29:11;4.50;99.90
19970;DHT22;10146;47.754;9.566;2024-02-23T06:31:38;4.50;99.90
19970;DHT22;10146;47.754;9.566;2024-02-23T06:34:07;4.60;99.90
19970;DHT22;10146;47.754;9.566;2024-02-23T06:36:33;4.70;99.90
19970;DHT22;10146;47.754;9.566;2024-02-23T06:38:59;4.70;99.90
19970;DHT22;10146;47.754;9.566;2024-02-23T06:41:24;4.70;99.90
19970;DHT22;10146;47.754;9.566;2024-02-23T06:43:51;4.80;99.90
19970;DHT22;10146;47.754;9.566;2024-02-23T06:46:19;4.70;99.90
19970;DHT22;10146;47.754;9.566;2024-02-23T06:48:46;4.70;99.90
19970;DHT22;10146;47.754;9.566;2024-02-23T06:51:11;4.70;99.90
19970;DHT22;10146;47.754;9.566;2024-02-23T06:53:37;4.80;99.90
19970;DHT22;10146;47.754;9.566;2024-02-23T06:56:03;4.80;99.90
19970;DHT22;10146;47.754;9.566;2024-02-23T06:58:29;4.80;99.90
19970;DHT22;10146;47.754;9.566;2024-02-23T07:00:54;4.80;99.90
19970;DHT22;10146;47.754;9.566;2024-02-23T07:03:20;4.80;99.90
19970;DHT22;10146;47.754;9.566;2024-02-23T07:05:46;4.80;99.90
19970;DHT22;10146;47.754;9.566;2024-02-23T07:08:12;4.80;99.90
19970;DHT22;10146;47.754;9.566;2024-02-23T07:10:38;4.70;99.90
19970;DHT22;10146;47.754;9.566;2024-02-23T07:13:04;4.80;99.90
19970;DHT22;10146;47.754;9.566;2024-02-23T07:15:29;4.80;99.90
19970;DHT22;10146;47.754;9.566;2024-02-23T07:17:55;4.80;99.90
19970;DHT22;10146;47.754;9.566;2024-02-23T07:20:22;4.90;99.90
19970;DHT22;10146;47.754;9.566;2024-02-23T07:22:48;4.90;99.90
19970;DHT22;10146;47.754;9.566;2024-02-23T07:25:17;5.00;99.90
19970;DHT22;10146;47.754;9.566;2024-02-23T07:27:43;5.10;99.90
19970;DHT22;10146;47.754;9.566;2024-02-23T07:30:10;5.10;99.90
19970;DHT22;10146;47.754;9.566;2024-02-23T07:32:35;5.10;99.90
19970;DHT22;10146;47.754;9.566;2024-02-23T07:35:01;5.10;99.90
19970;DHT22;10146;47.754;9.566;2024-02-23T07:37:29;5.10;99.90
19970;DHT22;10146;47.754;9.566;2024-02-23T07:39:55;5.10;99.90
19970;DHT22;10146;47.754;9.566;2024-02-23T07:42:20;5.20;99.90
19970;DHT22;10146;47.754;9.566;2024-02-23T07:44:46;5.10;99.90
19970;DHT22;10146;47.754;9.566;2024-02-23T07:47:12;5.20;99.90
19970;DHT22;10146;47.754;9.566;2024-02-23T07:49:38;5.20;99.90
19970;DHT22;10146;47.754;9.566;2024-02-23T07:52:06;5.20;99.90
19970;DHT22;10146;47.754;9.566;2024-02-23T07:54:32;5.20;99.90
19970;DHT22;10146;47.754;9.566;2024-02-23T07:56:58;5.30;99.90
19970;DHT22;10146;47.754;9.566;2024-02-23T07:59:24;5.30;99.90
19970;DHT22;10146;47.754;9.566;2024-02-23T08:01:50;5.20;99.90
19970;DHT22;10146;47.754;9.566;2024-02-23T08:04:15;5.20;99.90
19970;DHT22;10146;47.754;9.566;2024-02-23T08:06:41;5.30;99.90
19970;DHT22;10146;47.754;9.566;2024-02-23T08:09:08;5.30;99.90
19970;DHT22;10146;47.754;9.566;2024-02-23T08:11:34;5.30;99.90
19970;DHT22;10146;47.754;9.566;2024-02-23T08:13:59;5.30;99.90
19970;DHT22;10146;47.754;9.566;2024-02-23T08:16:25;5.30;99.90
19970;DHT22;10146;47.754;9.566;2024-02-23T08:18:51;5.30;99.90
19970;DHT22;10146;47.754;9.566;2024-02-23T08:21:16;5.30;99.90
19970;DHT22;10146;47.754;9.566;2024-02-23T08:23:43;5.40;99.90
19970;DHT22;10146;47.754;9.566;2024-02-23T08:26:09;5.30;99.90
19970;DHT22;10146;47.754;9.566;2024-02-23T08:28:35;5.30;99.90
19970;DHT22;10146;47.754;9.566;2024-02-23T08:31:01;5.40;99.90
19970;DHT22;10146;47.754;9.566;2024-02-23T08:33:26;5.40;99.90
19970;DHT22;10146;47.754;9.566;2024-02-23T08:35:52;5.40;99.90
19970;DHT22;10146;47.754;9.566;2024-02-23T08:38:18;5.40;99.90
19970;DHT22;10146;47.754;9.566;2024-02-23T08:40:44;5.40;99.90
19970;DHT22;10146;47.754;9.566;2024-02-23T08:43:10;5.40;99.90
19970;DHT22;10146;47.754;9.566;2024-02-23T08:45:36;5.50;99.90
19970;DHT22;10146;47.754;9.566;2024-02-23T08:48:02;5.50;99.90
19970;DHT22;10146;47.754;9.566;2024-02-23T08:50:29;5.60;99.90
19970;DHT22;10146;47.754;9.566;2024-02-23T08:52:54;5.60;99.90
19970;DHT22;10146;47.754;9.566;2024-02-23T08:55:20;5.60;99.90
19970;DHT22;10146;47.754;9.566;2024-02-23T08:57:46;5.70;99.90
19970;DHT22;10146;47.754;9.566;2024-02-23T09:00:13;5.70;99.90
19970;DHT22;10146;47.754;9.566;2024-02-23T09:02:39;5.80;99.90
19970;DHT22;10146;47.754;9.566;2024-02-23T09:05:07;5.80;99.90
19970;DHT22;10146;47.754;9.566;2024-02-23T09:07:33;5.80;99.90
19970;DHT22;10146;47.754;9.566;2024-02-23T09:09:58;5.80;99.90
19970;DHT22;10146;47.754;9.566;2024-02-23T09:12:24;5.80;99.90
19970;DHT22;10146;47.754;9.566;2024-02-23T09:14:50;5.90;99.90
19970;DHT22;10146;47.754;9.566;2024-02-23T09:17:15;5.90;99.90
19970;DHT22;10146;47.754;9.566;2024-02-23T09:19:41;5.90;99.90
19970;DHT22;10146;47.754;9.566;2024-02-23T09:22:06;5.90;99.90
19970;DHT22;10146;47.754;9.566;2024-02-23T09:24:32;6.00;99.90
19970;DHT22;10146;47.754;9.566;2024-02-23T09:26:58;6.00;99.90
19970;DHT22;10146;47.754;9.566;2024-02-23T09:29:24;6.00;99.90
19970;DHT22;10146;47.754;9.566;2024-02-23T09:31:49;6.10;99.90
19970;DHT22;10146;47.754;9.566;2024-02-23T09:34:15;6.20;99.90
19970;DHT22;10146;47.754;9.566;2024-02-23T09:36:40;6.20;99.90
19970;DHT22;10146;47.754;9.566;2024-02-23T09:39:06;6.20;99.90
19970;DHT22;10146;47.754;9.566;2024-02-23T09:41:32;6.20;99.90
19970;DHT22;10146;47.754;9.566;2024-02-23T09:44:01;6.30;99.90
19970;DHT22;10146;47.754;9.566;2024-02-23T09:46:27;6.30;99.90
19970;DHT22;10146;47.754;9.566;2024-02-23T09:48:55;6.30;99.90
19970;DHT22;10146;47.754;9.566;2024-02-23T09:51:22;6.30;99.90
19970;DHT22;10146;47.754;9.566;2024-02-23T09:53:49;6.40;99.90
19970;DHT22;10146;47.754;9.566;2024-02-23T09:56:17;6.50;99.90
19970;DHT22;10146;47.754;9.566;2024-02-23T09:58:44;6.50;99.90
19970;DHT22;10146;47.754;9.566;2024-02-23T10:01:12;6.50;99.90
19970;DHT22;10146;47.754;9.566;2024-02-23T10:03:39;6.50;99.90
19970;DHT22;10146;47.754;9.566;2024-02-23T10:06:05;6.50;99.90
19970;DHT22;10146;47.754;9.566;2024-02-23T10:08:31;6.50;99.90
19970;DHT22;10146;47.754;9.566;2024-02-23T10:10:56;6.60;99.90
19970;DHT22;10146;47.754;9.566;2024-02-23T10:13:23;6.60;99.90
19970;DHT22;10146;47.754;9.566;2024-02-23T10:15:52;6.60;99.90
19970;DHT22;10146;47.754;9.566;2024-02-23T10:18:18;6.60;99.90
19970;DHT22;10146;47.754;9.566;2024-02-23T10:20:43;6.70;99.90
19970;DHT22;10146;47.754;9.566;2024-02-23T10:23:09;6.60;99.90
19970;DHT22;10146;47.754;9.566;2024-02-23T10:25:36;6.70;99.90
19970;DHT22;10146;47.754;9.566;2024-02-23T10:28:03;6.60;99.90
19970;DHT22;10146;47.754;9.566;2024-02-23T10:30:29;6.60;99.90
19970;DHT22;10146;47.754;9.566;2024-02-23T10:32:56;6.70;99.90
19970;DHT22;10146;47.754;9.566;2024-02-23T10:35:23;6.70;99.90
19970;DHT22;10146;47.754;9.566;2024-02-23T10:37:49;6.70;99.90
19970;DHT22;10146;47.754;9.566;2024-02-23T10:40:19;6.70;99.90
19970;DHT22;10146;47.754;9.566;2024-02-23T10:42:47;6.80;99.90
19970;DHT22;10146;47.754;9.566;2024-02-23T10:45:20;6.80;99.90
19970;DHT22;10146;47.754;9.566;2024-02-23T10:47:48;6.80;99.90
19970;DHT22;10146;47.754;9.566;2024-02-23T10:50:14;6.80;99.90
19970;DHT22;10146;47.754;9.566;2024-02-23T10:52:42;6.80;99.90
19970;DHT22;10146;47.754;9.566;2024-02-23T10:55:09;6.90;99.90
19970;DHT22;10146;47.754;9.566;2024-02-23T10:57:35;6.90;99.90
19970;DHT22;10146;47.754;9.566;2024-02-23T11:00:02;6.90;99.90
19970;DHT22;10146;47.754;9.566;2024-02-23T11:02:33;6.90;99.90
19970;DHT22;10146;47.754;9.566;2024-02-23T11:05:00;6.90;99.90
19970;DHT22;10146;47.754;9.566;2024-02-23T11:07:29;6.90;99.90
19970;DHT22;10146;47.754;9.566;2024-02-23T11:09:58;6.90;99.90
19970;DHT22;10146;47.754;9.566;2024-02-23T11:12:25;6.80;99.90
19970;DHT22;10146;47.754;9.566;2024-02-23T11:14:51;6.70;99.90
19970;DHT22;10146;47.754;9.566;2024-02-23T11:17:22;6.70;99.90
19970;DHT22;10146;47.754;9.566;2024-02-23T11:19:50;6.70;99.90
19970;DHT22;10146;47.754;9.566;2024-02-23T11:22:24;6.70;99.90
19970;DHT22;10146;47.754;9.566;2024-02-23T11:24:50;6.70;99.90
19970;DHT22;10146;47.754;9.566;2024-02-23T11:27:16;6.70;99.90
19970;DHT22;10146;47.754;9.566;2024-02-23T11:29:47;6.70;99.90
19970;DHT22;10146;47.754;9.566;2024-02-23T11:32:17;6.70;99.90
19970;DHT22;10146;47.754;9.566;2024-02-23T11:34:56;6.80;99.90
19970;DHT22;10146;47.754;9.566;2024-02-23T11:37:22;6.80;99.90
19970;DHT22;10146;47.754;9.566;2024-02-23T11:39:48;6.80;99.90
19970;DHT22;10146;47.754;9.566;2024-02-23T11:42:14;6.90;99.90
19970;DHT22;10146;47.754;9.566;2024-02-23T11:44:40;6.90;99.90
19970;DHT22;10146;47.754;9.566;2024-02-23T11:47:07;7.00;99.90
19970;DHT22;10146;47.754;9.566;2024-02-23T11:49:33;6.90;99.90
19970;DHT22;10146;47.754;9.566;2024-02-23T11:51:58;7.00;99.90
19970;DHT22;10146;47.754;9.566;2024-02-23T11:54:24;7.00;99.90
19970;DHT22;10146;47.754;9.566;2024-02-23T11:56:50;7.10;99.90
19970;DHT22;10146;47.754;9.566;2024-02-23T11:59:19;7.20;99.90
19970;DHT22;10146;47.754;9.566;2024-02-23T12:01:46;7.10;99.90
19970;DHT22;10146;47.754;9.566;2024-02-23T12:04:13;7.20;99.90
19970;DHT22;10146;47.754;9.566;2024-02-23T12:06:40;7.30;99.90
19970;DHT22;10146;47.754;9.566;2024-02-23T12:09:07;7.40;99.90
19970;DHT22;10146;47.754;9.566;2024-02-23T12:11:33;7.50;99.90
19970;DHT22;10146;47.754;9.566;2024-02-23T12:14:00;7.60;99.90
19970;DHT22;10146;47.754;9.566;2024-02-23T12:16:27;7.70;99.90
19970;DHT22;10146;47.754;9.566;2024-02-23T12:18:54;7.70;99.90
19970;DHT22;10146;47.754;9.566;2024-02-23T12:21:21;7.80;99.90
19970;DHT22;10146;47.754;9.566;2024-02-23T12:23:49;7.80;99.90
19970;DHT22;10146;47.754;9.566;2024-02-23T12:26:17;7.80;99.90
19970;DHT22;10146;47.754;9.566;2024-02-23T12:28:43;7.70;99.90
19970;DHT22;10146;47.754;9.566;2024-02-23T12:31:10;7.60;99.90
19970;DHT22;10146;47.754;9.566;2024-02-23T12:33:37;7.60;99.90
19970;DHT22;10146;47.754;9.566;2024-02-23T12:36:04;7.60;99.90
19970;DHT22;10146;47.754;9.566;2024-02-23T12:38:30;7.60;99.90
19970;DHT22;10146;47.754;9.566;2024-02-23T12:40:56;7.60;99.90
19970;DHT22;10146;47.754;9.566;2024-02-23T12:43:22;7.70;99.90
19970;DHT22;10146;47.754;9.566;2024-02-23T12:45:53;7.70;99.90
19970;DHT22;10146;47.754;9.566;2024-02-23T12:48:20;7.80;99.90
19970;DHT22;10146;47.754;9.566;2024-02-23T12:50:46;7.70;99.90
19970;DHT22;10146;47.754;9.566;2024-02-23T12:53:36;7.70;99.90
19970;DHT22;10146;47.754;9.566;2024-02-23T12:56:12;7.80;99.90
19970;DHT22;10146;47.754;9.566;2024-02-23T12:58:42;7.80;99.90
19970;DHT22;10146;47.754;9.566;2024-02-23T13:01:09;7.80;99.90
19970;DHT22;10146;47.754;9.566;2024-02-23T13:03:36;7.80;99.90
19970;DHT22;10146;47.754;9.566;2024-02-23T13:06:02;7.90;99.90
19970;DHT22;10146;47.754;9.566;2024-02-23T13:08:28;7.90;99.90
19970;DHT22;10146;47.754;9.566;2024-02-23T13:10:54;8.00;99.90
19970;DHT22;10146;47.754;9.566;2024-02-23T13:13:21;8.10;99.90
19970;DHT22;10146;47.754;9.566;2024-02-23T13:15:47;8.20;99.90
19970;DHT22;10146;47.754;9.566;2024-02-23T13:18:13;8.20;99.90
19970;DHT22;10146;47.754;9.566;2024-02-23T13:20:40;8.30;99.90
19970;DHT22;10146;47.754;9.566;2024-02-23T13:23:09;8.40;99.90
19970;DHT22;10146;47.754;9.566;2024-02-23T13:25:41;8.40;99.90
19970;DHT22;10146;47.754;9.566;2024-02-23T13:28:08;8.50;99.90
19970;DHT22;10146;47.754;9.566;2024-02-23T13:30:35;8.40;99.90
19970;DHT22;10146;47.754;9.566;2024-02-23T13:33:01;8.40;99.90
19970;DHT22;10146;47.754;9.566;2024-02-23T13:35:27;8.50;99.90
19970;DHT22;10146;47.754;9.566;2024-02-23T13:37:53;8.60;99.90
19970;DHT22;10146;47.754;9.566;2024-02-23T13:40:19;8.60;99.90
19970;DHT22;10146;47.754;9.566;2024-02-23T13:42:44;8.60;99.90
19970;DHT22;10146;47.754;9.566;2024-02-23T13:45:18;8.50;99.90
19970;DHT22;10146;47.754;9.566;2024-02-23T13:47:59;8.40;99.90
19970;DHT22;10146;47.754;9.566;2024-02-23T13:50:24;8.40;99.90
19970;DHT22;10146;47.754;9.566;2024-02-23T13:52:51;8.30;99.90
19970;DHT22;10146;47.754;9.566;2024-02-23T13:55:17;8.30;99.90
19970;DHT22;10146;47.754;9.566;2024-02-23T13:57:42;8.30;99.90
19970;DHT22;10146;47.754;9.566;2024-02-23T14:00:09;8.30;99.90
19970;DHT22;10146;47.754;9.566;2024-02-23T14:02:38;8.20;99.90
19970;DHT22;10146;47.754;9.566;2024-02-23T14:05:06;8.10;99.90
19970;DHT22;10146;47.754;9.566;2024-02-23T14:07:33;8.10;99.90
19970;DHT22;10146;47.754;9.566;2024-02-23T14:09:58;8.10;99.90
19970;DHT22;10146;47.754;9.566;2024-02-23T14:12:24;8.10;99.90
19970;DHT22;10146;47.754;9.566;2024-02-23T14:14:50;8.20;99.90
19970;DHT22;10146;47.754;9.566;2024-02-23T14:17:15;8.20;99.90
19970;DHT22;10146;47.754;9.566;2024-02-23T14:19:41;8.30;99.90
19970;DHT22;10146;47.754;9.566;2024-02-23T14:22:07;8.30;99.90
19970;DHT22;10146;47.754;9.566;2024-02-23T14:24:32;8.30;99.90
19970;DHT22;10146;47.754;9.566;2024-02-23T14:26:58;8.40;99.90
19970;DHT22;10146;47.754;9.566;2024-02-23T14:29:23;8.40;99.90
19970;DHT22;10146;47.754;9.566;2024-02-23T14:31:49;8.30;99.90
19970;DHT22;10146;47.754;9.566;2024-02-23T14:34:15;8.30;99.90
19970;DHT22;10146;47.754;9.566;2024-02-23T14:36:40;8.20;99.90
19970;DHT22;10146;47.754;9.566;2024-02-23T14:39:06;8.20;99.90
19970;DHT22;10146;47.754;9.566;2024-02-23T14:41:32;8.20;99.90
19970;DHT22;10146;47.754;9.566;2024-02-23T14:43:57;8.30;99.90
19970;DHT22;10146;47.754;9.566;2024-02-23T14:46:23;8.40;99.90
19970;DHT22;10146;47.754;9.566;2024-02-23T14:48:48;8.40;99.90
19970;DHT22;10146;47.754;9.566;2024-02-23T14:51:17;8.30;99.90
19970;DHT22;10146;47.754;9.566;2024-02-23T14:53:43;8.40;99.90
19970;DHT22;10146;47.754;9.566;2024-02-23T14:56:08;8.40;99.90
19970;DHT22;10146;47.754;9.566;2024-02-23T14:58:34;8.40;99.90
19970;DHT22;10146;47.754;9.566;2024-02-23T15:00:59;8.40;99.90
19970;DHT22;10146;47.754;9.566;2024-02-23T15:03:26;8.40;99.90
19970;DHT22;10146;47.754;9.566;2024-02-23T15:05:51;8.40;99.90
19970;DHT22;10146;47.754;9.566;2024-02-23T15:08:17;8.30;99.90
19970;DHT22;10146;47.754;9.566;2024-02-23T15:10:43;8.40;99.90
19970;DHT22;10146;47.754;9.566;2024-02-23T15:13:08;8.30;99.90
19970;DHT22;10146;47.754;9.566;2024-02-23T15:15:34;8.30;99.90
19970;DHT22;10146;47.754;9.566;2024-02-23T15:18:01;8.30;99.90
19970;DHT22;10146;47.754;9.566;2024-02-23T15:20:27;8.30;99.90
19970;DHT22;10146;47.754;9.566;2024-02-23T15:22:53;8.20;99.90
19970;DHT22;10146;47.754;9.566;2024-02-23T15:25:19;8.20;99.90
19970;DHT22;10146;47.754;9.566;2024-02-23T15:27:45;8.20;99.90
19970;DHT22;10146;47.754;9.566;2024-02-23T15:30:11;8.20;99.90
19970;DHT22;10146;47.754;9.566;2024-02-23T15:32:37;8.10;99.90
19970;DHT22;10146;47.754;9.566;2024-02-23T15:35:03;7.90;99.90
19970;DHT22;10146;47.754;9.566;2024-02-23T15:37:29;7.80;99.90
19970;DHT22;10146;47.754;9.566;2024-02-23T15:39:55;7.70;99.90